sensor_id;sensor_type;location;lat;lon;timestamp;temperature;humidity
32753;DHT22;19121;52.428;10.816;2022-12-18T00:00:56;18.10;30.50
32753;DHT22;19121;52.428;10.816;2022-12-18T00:03:22;18.10;30.50
32753;DHT22;19121;52.428;10.816;2022-12-18T00:05:51;18.10;30.50
32753;DHT22;19121;52.428;10.816;2022-12-18T00:08:17;18.10;30.50
32753;DHT22;19121;52.428;10.816;2022-12-18T00:10:42;18.10;30.50
32753;DHT22;19121;52.428;10.816;2022-12-18T00:13:08;18.10;30.40
32753;DHT22;19121;52.428;10.816;2022-12-18T00:15:34;18.10;30.50
32753;DHT22;19121;52.428;10.816;2022-12-18T00:17:59;18.10;30.40
32753;DHT22;19121;52.428;10.816;2022-12-18T00:20:25;18.10;30.40
32753;DHT22;19121;52.428;10.816;2022-12-18T00:22:51;18.10;30.40
32753;DHT22;19121;52.428;10.816;2022-12-18T00:25:17;18.10;30.40
32753;DHT22;19121;52.428;10.816;2022-12-18T00:27:42;18.10;30.40
32753;DHT22;19121;52.428;10.816;2022-12-18T00:30:08;18.10;30.40
32753;DHT22;19121;52.428;10.816;2022-12-18T00:32:33;18.10;30.40
32753;DHT22;19121;52.428;10.816;2022-12-18T00:34:58;18.10;30.40
32753;DHT22;19121;52.428;10.816;2022-12-18T00:37:24;18.10;30.30
32753;DHT22;19121;52.428;10.816;2022-12-18T00:39:49;18.10;30.30
32753;DHT22;19121;52.428;10.816;2022-12-18T00:42:15;18.10;30.30
32753;DHT22;19121;52.428;10.816;2022-12-18T00:44:59;18.00;30.20
32753;DHT22;19121;52.428;10.816;2022-12-18T00:47:24;18.10;30.30
32753;DHT22;19121;52.428;10.816;2022-12-18T00:49:50;18.10;30.20
32753;DHT22;19121;52.428;10.816;2022-12-18T00:52:15;18.10;30.20
32753;DHT22;19121;52.428;10.816;2022-12-18T00:54:41;18.00;30.20
32753;DHT22;19121;52.428;10.816;2022-12-18T00:57:06;18.10;30.20
32753;DHT22;19121;52.428;10.816;2022-12-18T00:59:31;18.10;30.20
32753;DHT22;19121;52.428;10.816;2022-12-18T01:01:57;18.00;30.20
32753;DHT22;19121;52.428;10.816;2022-12-18T01:04:25;18.00;30.10
32753;DHT22;19121;52.428;10.816;2022-12-18T01:06:50;18.00;30.10
32753;DHT22;19121;52.428;10.816;2022-12-18T01:09:16;18.10;30.20
32753;DHT22;19121;52.428;10.816;2022-12-18T01:11:41;18.00;30.10
32753;DHT22;19121;52.428;10.816;2022-12-18T01:14:06;18.00;30.10
32753;DHT22;19121;52.428;10.816;2022-12-18T01:16:32;18.00;30.20
32753;DHT22;19121;52.428;10.816;2022-12-18T01:18:57;18.10;30.20
32753;DHT22;19121;52.428;10.816;2022-12-18T01:21:23;18.00;30.10
32753;DHT22;19121;52.428;10.816;2022-12-18T01:23:52;18.00;30.10
32753;DHT22;19121;52.428;10.816;2022-12-18T01:26:18;18.10;30.10
32753;DHT22;19121;52.428;10.816;2022-12-18T01:28:43;18.00;30.10
32753;DHT22;19121;52.428;10.816;2022-12-18T01:31:28;18.00;30.00
32753;DHT22;19121;52.428;10.816;2022-12-18T01:33:54;18.00;30.00
32753;DHT22;19121;52.428;10.816;2022-12-18T01:36:21;18.00;30.00
32753;DHT22;19121;52.428;10.816;2022-12-18T01:38:48;18.00;30.00
32753;DHT22;19121;52.428;10.816;2022-12-18T01:41:15;18.00;30.00
32753;DHT22;19121;52.428;10.816;2022-12-18T01:43:50;18.00;30.00
32753;DHT22;19121;52.428;10.816;2022-12-18T01:46:16;18.10;30.00
32753;DHT22;19121;52.428;10.816;2022-12-18T01:48:41;18.00;30.00
32753;DHT22;19121;52.428;10.816;2022-12-18T01:51:08;18.00;30.00
32753;DHT22;19121;52.428;10.816;2022-12-18T01:53:34;18.00;30.00
32753;DHT22;19121;52.428;10.816;2022-12-18T01:56:01;18.00;30.00
32753;DHT22;19121;52.428;10.816;2022-12-18T01:58:35;18.00;30.00
32753;DHT22;19121;52.428;10.816;2022-12-18T02:01:02;18.00;30.00
32753;DHT22;19121;52.428;10.816;2022-12-18T02:03:28;18.00;30.00
32753;DHT22;19121;52.428;10.816;2022-12-18T02:06:13;18.00;30.00
32753;DHT22;19121;52.428;10.816;2022-12-18T02:08:48;18.00;29.90
32753;DHT22;19121;52.428;10.816;2022-12-18T02:11:17;18.00;30.00
32753;DHT22;19121;52.428;10.816;2022-12-18T02:13:53;18.00;30.50
32753;DHT22;19121;52.428;10.816;2022-12-18T02:16:29;18.00;30.00
32753;DHT22;19121;52.428;10.816;2022-12-18T02:18:58;18.00;30.00
32753;DHT22;19121;52.428;10.816;2022-12-18T02:23:57;18.00;29.90
32753;DHT22;19121;52.428;10.816;2022-12-18T02:26:36;18.00;29.90
32753;DHT22;19121;52.428;10.816;2022-12-18T02:29:08;18.00;29.90
32753;DHT22;19121;52.428;10.816;2022-12-18T02:31:36;18.00;29.90
32753;DHT22;19121;52.428;10.816;2022-12-18T02:34:04;18.00;29.90
32753;DHT22;19121;52.428;10.816;2022-12-18T02:36:31;18.00;29.90
32753;DHT22;19121;52.428;10.816;2022-12-18T02:38:57;18.00;29.90
32753;DHT22;19121;52.428;10.816;2022-12-18T02:41:24;18.00;29.90
32753;DHT22;19121;52.428;10.816;2022-12-18T02:43:57;18.00;29.80
32753;DHT22;19121;52.428;10.816;2022-12-18T02:46:27;18.00;29.80
32753;DHT22;19121;52.428;10.816;2022-12-18T02:48:55;18.00;29.80
32753;DHT22;19121;52.428;10.816;2022-12-18T02:51:29;18.00;29.80
32753;DHT22;19121;52.428;10.816;2022-12-18T02:53:58;18.00;29.80
32753;DHT22;19121;52.428;10.816;2022-12-18T02:56:27;18.00;29.80
32753;DHT22;19121;52.428;10.816;2022-12-18T02:58:56;18.00;29.80
32753;DHT22;19121;52.428;10.816;2022-12-18T03:01:25;18.00;29.80
32753;DHT22;19121;52.428;10.816;2022-12-18T03:03:55;18.00;29.80
32753;DHT22;19121;52.428;10.816;2022-12-18T03:06:27;18.00;29.80
32753;DHT22;19121;52.428;10.816;2022-12-18T03:08:57;18.00;29.80
32753;DHT22;19121;52.428;10.816;2022-12-18T03:11:23;18.00;29.80
32753;DHT22;19121;52.428;10.816;2022-12-18T03:14:10;18.00;29.70
32753;DHT22;19121;52.428;10.816;2022-12-18T03:16:38;18.00;29.70
32753;DHT22;19121;52.428;10.816;2022-12-18T03:19:11;18.00;29.70
32753;DHT22;19121;52.428;10.816;2022-12-18T03:21:43;18.00;29.70
32753;DHT22;19121;52.428;10.816;2022-12-18T03:24:10;18.00;29.70
32753;DHT22;19121;52.428;10.816;2022-12-18T03:26:36;18.00;29.70
32753;DHT22;19121;52.428;10.816;2022-12-18T03:29:05;18.00;29.70
32753;DHT22;19121;52.428;10.816;2022-12-18T03:31:31;18.00;29.70
32753;DHT22;19121;52.428;10.816;2022-12-18T03:33:58;18.00;29.70
32753;DHT22;19121;52.428;10.816;2022-12-18T03:36:24;18.00;29.60
32753;DHT22;19121;52.428;10.816;2022-12-18T03:38:50;18.00;29.60
32753;DHT22;19121;52.428;10.816;2022-12-18T03:41:29;18.00;29.60
32753;DHT22;19121;52.428;10.816;2022-12-18T03:43:59;18.00;30.00
32753;DHT22;19121;52.428;10.816;2022-12-18T03:46:28;18.00;29.50
32753;DHT22;19121;52.428;10.816;2022-12-18T03:49:04;18.00;29.50
32753;DHT22;19121;52.428;10.816;2022-12-18T03:54:02;18.00;29.50
32753;DHT22;19121;52.428;10.816;2022-12-18T03:56:31;18.00;29.50
32753;DHT22;19121;52.428;10.816;2022-12-18T03:58:58;18.00;29.50
32753;DHT22;19121;52.428;10.816;2022-12-18T04:01:26;18.00;29.50
32753;DHT22;19121;52.428;10.816;2022-12-18T04:03:52;18.00;29.50
32753;DHT22;19121;52.428;10.816;2022-12-18T04:06:17;18.00;29.50
32753;DHT22;19121;52.428;10.816;2022-12-18T04:08:43;18.00;29.50
32753;DHT22;19121;52.428;10.816;2022-12-18T04:11:09;18.00;29.50
32753;DHT22;19121;52.428;10.816;2022-12-18T04:13:36;18.00;29.50
32753;DHT22;19121;52.428;10.816;2022-12-18T04:16:01;18.00;29.50
32753;DHT22;19121;52.428;10.816;2022-12-18T04:18:27;18.00;29.50
32753;DHT22;19121;52.428;10.816;2022-12-18T04:20:52;18.00;29.50
32753;DHT22;19121;52.428;10.816;2022-12-18T04:23:18;18.00;29.50
32753;DHT22;19121;52.428;10.816;2022-12-18T04:25:43;18.00;29.50
32753;DHT22;19121;52.428;10.816;2022-12-18T04:28:09;18.00;29.50
32753;DHT22;19121;52.428;10.816;2022-12-18T04:30:34;18.00;29.50
32753;DHT22;19121;52.428;10.816;2022-12-18T04:32:59;18.00;29.40
32753;DHT22;19121;52.428;10.816;2022-12-18T04:35:25;18.00;29.90
32753;DHT22;19121;52.428;10.816;2022-12-18T04:37:50;17.90;29.30
32753;DHT22;19121;52.428;10.816;2022-12-18T04:40:15;18.00;29.40
32753;DHT22;19121;52.428;10.816;2022-12-18T04:42:41;17.90;29.30
32753;DHT22;19121;52.428;10.816;2022-12-18T04:45:07;17.90;29.80
32753;DHT22;19121;52.428;10.816;2022-12-18T04:47:32;17.90;29.60
32753;DHT22;19121;52.428;10.816;2022-12-18T04:49:58;17.90;29.30
32753;DHT22;19121;52.428;10.816;2022-12-18T04:52:23;17.90;29.30
32753;DHT22;19121;52.428;10.816;2022-12-18T04:54:48;17.90;29.40
32753;DHT22;19121;52.428;10.816;2022-12-18T04:57:14;17.90;29.30
32753;DHT22;19121;52.428;10.816;2022-12-18T04:59:39;17.90;29.30
32753;DHT22;19121;52.428;10.816;2022-12-18T05:02:05;17.90;29.30
32753;DHT22;19121;52.428;10.816;2022-12-18T05:04:30;17.90;29.30
32753;DHT22;19121;52.428;10.816;2022-12-18T05:06:56;17.90;29.30
32753;DHT22;19121;52.428;10.816;2022-12-18T05:09:21;17.90;29.30
32753;DHT22;19121;52.428;10.816;2022-12-18T05:11:46;17.90;29.30
32753;DHT22;19121;52.428;10.816;2022-12-18T05:14:12;17.90;29.30
32753;DHT22;19121;52.428;10.816;2022-12-18T05:16:37;17.90;29.20
32753;DHT22;19121;52.428;10.816;2022-12-18T05:19:03;17.90;29.20
32753;DHT22;19121;52.428;10.816;2022-12-18T05:21:28;17.90;29.20
32753;DHT22;19121;52.428;10.816;2022-12-18T05:23:54;17.90;29.20
32753;DHT22;19121;52.428;10.816;2022-12-18T05:26:19;17.90;29.20
32753;DHT22;19121;52.428;10.816;2022-12-18T05:28:45;17.90;29.20
32753;DHT22;19121;52.428;10.816;2022-12-18T05:31:11;17.90;29.20
32753;DHT22;19121;52.428;10.816;2022-12-18T05:33:36;17.90;29.10
32753;DHT22;19121;52.428;10.816;2022-12-18T05:36:03;17.90;29.20
32753;DHT22;19121;52.428;10.816;2022-12-18T05:38:30;17.90;29.10
32753;DHT22;19121;52.428;10.816;2022-12-18T05:40:56;17.90;29.10
32753;DHT22;19121;52.428;10.816;2022-12-18T05:43:22;17.90;29.10
32753;DHT22;19121;52.428;10.816;2022-12-18T05:45:47;17.90;29.10
32753;DHT22;19121;52.428;10.816;2022-12-18T05:48:13;17.90;29.20
32753;DHT22;19121;52.428;10.816;2022-12-18T05:50:40;17.90;29.20
32753;DHT22;19121;52.428;10.816;2022-12-18T05:53:06;17.90;29.10
32753;DHT22;19121;52.428;10.816;2022-12-18T05:55:35;17.90;29.10
32753;DHT22;19121;52.428;10.816;2022-12-18T05:58:01;17.90;29.10
32753;DHT22;19121;52.428;10.816;2022-12-18T06:00:26;17.90;29.10
32753;DHT22;19121;52.428;10.816;2022-12-18T06:02:52;17.90;29.10
32753;DHT22;19121;52.428;10.816;2022-12-18T06:05:17;17.90;29.10
32753;DHT22;19121;52.428;10.816;2022-12-18T06:07:42;17.90;29.10
32753;DHT22;19121;52.428;10.816;2022-12-18T06:10:08;17.90;29.20
32753;DHT22;19121;52.428;10.816;2022-12-18T06:12:33;17.90;29.10
32753;DHT22;19121;52.428;10.816;2022-12-18T06:14:59;17.90;29.10
32753;DHT22;19121;52.428;10.816;2022-12-18T06:17:28;17.90;29.10
32753;DHT22;19121;52.428;10.816;2022-12-18T06:19:54;17.90;29.10
32753;DHT22;19121;52.428;10.816;2022-12-18T06:22:19;17.80;29.10
32753;DHT22;19121;52.428;10.816;2022-12-18T06:24:45;17.80;29.10
32753;DHT22;19121;52.428;10.816;2022-12-18T06:27:10;17.80;29.10
32753;DHT22;19121;52.428;10.816;2022-12-18T06:29:35;17.90;29.10
32753;DHT22;19121;52.428;10.816;2022-12-18T06:32:01;17.80;29.10
32753;DHT22;19121;52.428;10.816;2022-12-18T06:34:26;17.80;29.10
32753;DHT22;19121;52.428;10.816;2022-12-18T06:36:52;17.80;29.00
32753;DHT22;19121;52.428;10.816;2022-12-18T06:39:17;17.80;29.00
32753;DHT22;19121;52.428;10.816;2022-12-18T06:41:42;17.90;29.10
32753;DHT22;19121;52.428;10.816;2022-12-18T06:44:08;17.80;29.00
32753;DHT22;19121;52.428;10.816;2022-12-18T06:46:33;17.80;29.00
32753;DHT22;19121;52.428;10.816;2022-12-18T06:48:59;17.80;29.00
32753;DHT22;19121;52.428;10.816;2022-12-18T06:51:24;17.80;29.00
32753;DHT22;19121;52.428;10.816;2022-12-18T06:53:50;17.80;29.00
32753;DHT22;19121;52.428;10.816;2022-12-18T06:56:15;17.80;29.00
32753;DHT22;19121;52.428;10.816;2022-12-18T06:58:41;17.80;28.90
32753;DHT22;19121;52.428;10.816;2022-12-18T07:01:07;17.80;28.90
32753;DHT22;19121;52.428;10.816;2022-12-18T07:03:33;17.80;28.90
32753;DHT22;19121;52.428;10.816;2022-12-18T07:05:58;17.80;28.90
32753;DHT22;19121;52.428;10.816;2022-12-18T07:08:24;17.80;28.90
32753;DHT22;19121;52.428;10.816;2022-12-18T07:10:49;17.80;28.90
32753;DHT22;19121;52.428;10.816;2022-12-18T07:13:15;17.80;28.90
32753;DHT22;19121;52.428;10.816;2022-12-18T07:15:41;17.80;28.90
32753;DHT22;19121;52.428;10.816;2022-12-18T07:18:06;17.80;28.90
32753;DHT22;19121;52.428;10.816;2022-12-18T07:20:31;17.80;28.80
32753;DHT22;19121;52.428;10.816;2022-12-18T07:22:57;17.80;28.90
32753;DHT22;19121;52.428;10.816;2022-12-18T07:25:22;17.80;28.80
32753;DHT22;19121;52.428;10.816;2022-12-18T07:27:48;17.80;28.80
32753;DHT22;19121;52.428;10.816;2022-12-18T07:30:13;17.90;28.90
32753;DHT22;19121;52.428;10.816;2022-12-18T07:32:39;17.80;28.80
32753;DHT22;19121;52.428;10.816;2022-12-18T07:35:04;17.80;28.80
32753;DHT22;19121;52.428;10.816;2022-12-18T07:37:29;17.80;28.80
32753;DHT22;19121;52.428;10.816;2022-12-18T07:39:55;17.90;28.80
32753;DHT22;19121;52.428;10.816;2022-12-18T07:42:20;17.90;28.80
32753;DHT22;19121;52.428;10.816;2022-12-18T07:44:58;17.90;28.80
32753;DHT22;19121;52.428;10.816;2022-12-18T07:47:24;17.80;28.80
32753;DHT22;19121;52.428;10.816;2022-12-18T07:49:49;17.80;28.80
32753;DHT22;19121;52.428;10.816;2022-12-18T07:52:15;17.80;28.80
32753;DHT22;19121;52.428;10.816;2022-12-18T07:54:40;17.80;28.80
32753;DHT22;19121;52.428;10.816;2022-12-18T07:57:06;17.90;28.80
32753;DHT22;19121;52.428;10.816;2022-12-18T07:59:31;17.80;28.80
32753;DHT22;19121;52.428;10.816;2022-12-18T08:01:57;17.80;28.70
32753;DHT22;19121;52.428;10.816;2022-12-18T08:04:22;17.80;28.80
32753;DHT22;19121;52.428;10.816;2022-12-18T08:06:47;17.80;28.70
32753;DHT22;19121;52.428;10.816;2022-12-18T08:09:13;17.80;28.70
32753;DHT22;19121;52.428;10.816;2022-12-18T08:11:38;17.80;28.70
32753;DHT22;19121;52.428;10.816;2022-12-18T08:14:04;17.80;28.70
32753;DHT22;19121;52.428;10.816;2022-12-18T08:16:29;17.80;28.70
32753;DHT22;19121;52.428;10.816;2022-12-18T08:18:55;17.80;28.70
32753;DHT22;19121;52.428;10.816;2022-12-18T08:21:22;17.80;28.70
32753;DHT22;19121;52.428;10.816;2022-12-18T08:23:48;17.90;28.70
32753;DHT22;19121;52.428;10.816;2022-12-18T08:26:13;17.80;28.60
32753;DHT22;19121;52.428;10.816;2022-12-18T08:28:39;17.80;28.70
32753;DHT22;19121;52.428;10.816;2022-12-18T08:31:05;17.80;28.60
32753;DHT22;19121;52.428;10.816;2022-12-18T08:33:30;17.80;28.60
32753;DHT22;19121;52.428;10.816;2022-12-18T08:35:57;17.90;28.60
32753;DHT22;19121;52.428;10.816;2022-12-18T08:38:23;17.90;28.60
32753;DHT22;19121;52.428;10.816;2022-12-18T08:40:48;17.80;28.60
32753;DHT22;19121;52.428;10.816;2022-12-18T08:43:13;17.90;28.60
32753;DHT22;19121;52.428;10.816;2022-12-18T08:45:58;17.90;28.60
32753;DHT22;19121;52.428;10.816;2022-12-18T08:48:23;17.90;28.60
32753;DHT22;19121;52.428;10.816;2022-12-18T08:50:57;17.90;28.60
32753;DHT22;19121;52.428;10.816;2022-12-18T08:53:23;17.90;28.60
32753;DHT22;19121;52.428;10.816;2022-12-18T08:55:49;17.90;28.60
32753;DHT22;19121;52.428;10.816;2022-12-18T08:58:14;17.90;28.60
32753;DHT22;19121;52.428;10.816;2022-12-18T09:00:40;17.90;28.50
32753;DHT22;19121;52.428;10.816;2022-12-18T09:03:05;17.90;28.50
32753;DHT22;19121;52.428;10.816;2022-12-18T09:05:35;17.90;28.50
32753;DHT22;19121;52.428;10.816;2022-12-18T09:08:01;17.90;28.50
32753;DHT22;19121;52.428;10.816;2022-12-18T09:10:26;18.00;28.50
32753;DHT22;19121;52.428;10.816;2022-12-18T09:12:51;18.00;28.50
32753;DHT22;19121;52.428;10.816;2022-12-18T09:15:17;18.00;28.50
32753;DHT22;19121;52.428;10.816;2022-12-18T09:17:42;18.00;28.50
32753;DHT22;19121;52.428;10.816;2022-12-18T09:20:08;18.00;28.50
32753;DHT22;19121;52.428;10.816;2022-12-18T09:22:33;18.00;28.40
32753;DHT22;19121;52.428;10.816;2022-12-18T09:24:59;18.00;28.40
32753;DHT22;19121;52.428;10.816;2022-12-18T09:27:24;18.00;28.40
32753;DHT22;19121;52.428;10.816;2022-12-18T09:29:50;18.10;28.50
32753;DHT22;19121;52.428;10.816;2022-12-18T09:32:15;18.10;28.40
32753;DHT22;19121;52.428;10.816;2022-12-18T09:34:40;18.10;28.40
32753;DHT22;19121;52.428;10.816;2022-12-18T09:37:06;18.10;28.40
32753;DHT22;19121;52.428;10.816;2022-12-18T09:39:31;18.10;28.40
32753;DHT22;19121;52.428;10.816;2022-12-18T09:41:57;18.10;28.40
32753;DHT22;19121;52.428;10.816;2022-12-18T09:44:28;18.10;28.40
32753;DHT22;19121;52.428;10.816;2022-12-18T09:47:03;18.10;28.40
32753;DHT22;19121;52.428;10.816;2022-12-18T09:49:34;18.10;28.40
32753;DHT22;19121;52.428;10.816;2022-12-18T09:54:32;18.10;28.30
32753;DHT22;19121;52.428;10.816;2022-12-18T09:56:58;18.20;28.40
32753;DHT22;19121;52.428;10.816;2022-12-18T09:59:25;18.10;28.30
32753;DHT22;19121;52.428;10.816;2022-12-18T10:01:52;18.10;28.30
32753;DHT22;19121;52.428;10.816;2022-12-18T10:04:17;18.20;28.40
32753;DHT22;19121;52.428;10.816;2022-12-18T10:06:46;18.10;28.30
32753;DHT22;19121;52.428;10.816;2022-12-18T10:12:07;18.10;28.30
32753;DHT22;19121;52.428;10.816;2022-12-18T10:14:42;18.20;28.40
32753;DHT22;19121;52.428;10.816;2022-12-18T10:22:19;18.20;28.40
32753;DHT22;19121;52.428;10.816;2022-12-18T10:27:30;18.20;28.30
32753;DHT22;19121;52.428;10.816;2022-12-18T10:29:56;18.20;28.40
32753;DHT22;19121;52.428;10.816;2022-12-18T10:32:26;18.20;28.40
32753;DHT22;19121;52.428;10.816;2022-12-18T10:34:52;18.20;28.40
32753;DHT22;19121;52.428;10.816;2022-12-18T10:37:19;18.20;28.30
32753;DHT22;19121;52.428;10.816;2022-12-18T10:39:46;18.20;28.30
32753;DHT22;19121;52.428;10.816;2022-12-18T10:42:18;18.20;28.40
32753;DHT22;19121;52.428;10.816;2022-12-18T10:44:44;18.20;28.40
32753;DHT22;19121;52.428;10.816;2022-12-18T10:47:14;18.20;28.40
32753;DHT22;19121;52.428;10.816;2022-12-18T10:49:43;18.20;28.40
32753;DHT22;19121;52.428;10.816;2022-12-18T10:52:18;18.20;28.40
32753;DHT22;19121;52.428;10.816;2022-12-18T10:54:51;18.20;28.40
32753;DHT22;19121;52.428;10.816;2022-12-18T10:59:52;18.20;28.40
32753;DHT22;19121;52.428;10.816;2022-12-18T11:02:25;18.20;28.50
32753;DHT22;19121;52.428;10.816;2022-12-18T11:04:52;18.20;28.40
32753;DHT22;19121;52.428;10.816;2022-12-18T11:07:17;18.20;28.40
32753;DHT22;19121;52.428;10.816;2022-12-18T11:09:43;18.20;28.40
32753;DHT22;19121;52.428;10.816;2022-12-18T11:12:15;18.20;28.40
32753;DHT22;19121;52.428;10.816;2022-12-18T11:14:42;18.20;28.40
32753;DHT22;19121;52.428;10.816;2022-12-18T11:17:19;18.20;28.40
32753;DHT22;19121;52.428;10.816;2022-12-18T11:19:44;18.20;28.50
32753;DHT22;19121;52.428;10.816;2022-12-18T11:22:18;18.20;28.40
32753;DHT22;19121;52.428;10.816;2022-12-18T11:24:49;18.20;28.90
32753;DHT22;19121;52.428;10.816;2022-12-18T11:27:17;18.20;28.40
32753;DHT22;19121;52.428;10.816;2022-12-18T11:29:43;18.20;28.40
32753;DHT22;19121;52.428;10.816;2022-12-18T11:32:27;18.20;28.40
32753;DHT22;19121;52.428;10.816;2022-12-18T11:35:00;18.20;28.40
32753;DHT22;19121;52.428;10.816;2022-12-18T11:37:26;18.20;28.40
32753;DHT22;19121;52.428;10.816;2022-12-18T11:40:03;18.20;28.40
32753;DHT22;19121;52.428;10.816;2022-12-18T11:45:30;18.20;28.40
32753;DHT22;19121;52.428;10.816;2022-12-18T11:47:59;18.20;28.50
32753;DHT22;19121;52.428;10.816;2022-12-18T11:53:10;18.20;28.50
32753;DHT22;19121;52.428;10.816;2022-12-18T11:55:50;18.20;28.50
32753;DHT22;19121;52.428;10.816;2022-12-18T11:58:24;18.20;28.50
32753;DHT22;19121;52.428;10.816;2022-12-18T12:01:09;18.20;28.50
32753;DHT22;19121;52.428;10.816;2022-12-18T12:03:43;18.20;28.50
32753;DHT22;19121;52.428;10.816;2022-12-18T12:06:20;18.20;28.50
32753;DHT22;19121;52.428;10.816;2022-12-18T12:13:44;18.20;28.50
32753;DHT22;19121;52.428;10.816;2022-12-18T12:16:34;18.20;28.40
32753;DHT22;19121;52.428;10.816;2022-12-18T12:19:10;18.20;28.50
32753;DHT22;19121;52.428;10.816;2022-12-18T12:21:39;18.20;28.50
32753;DHT22;19121;52.428;10.816;2022-12-18T12:27:05;18.20;28.50
32753;DHT22;19121;52.428;10.816;2022-12-18T12:29:45;18.20;28.50
32753;DHT22;19121;52.428;10.816;2022-12-18T12:35:00;18.20;28.90
32753;DHT22;19121;52.428;10.816;2022-12-18T12:37:36;18.20;28.50
32753;DHT22;19121;52.428;10.816;2022-12-18T12:40:05;18.20;28.50
32753;DHT22;19121;52.428;10.816;2022-12-18T12:42:44;18.20;28.50
32753;DHT22;19121;52.428;10.816;2022-12-18T12:45:34;18.20;28.50
32753;DHT22;19121;52.428;10.816;2022-12-18T12:48:01;18.20;28.50
32753;DHT22;19121;52.428;10.816;2022-12-18T12:50:27;18.20;28.40
32753;DHT22;19121;52.428;10.816;2022-12-18T12:52:53;18.30;28.50
32753;DHT22;19121;52.428;10.816;2022-12-18T12:55:24;18.20;28.40
32753;DHT22;19121;52.428;10.816;2022-12-18T13:00:22;18.20;28.40
32753;DHT22;19121;52.428;10.816;2022-12-18T13:08:32;18.30;28.50
32753;DHT22;19121;52.428;10.816;2022-12-18T13:10:52;18.30;28.50
32753;DHT22;19121;52.428;10.816;2022-12-18T13:13:47;18.30;28.50
32753;DHT22;19121;52.428;10.816;2022-12-18T13:16:13;18.30;28.50
32753;DHT22;19121;52.428;10.816;2022-12-18T13:18:48;18.30;28.50
32753;DHT22;19121;52.428;10.816;2022-12-18T13:21:21;18.30;28.60
32753;DHT22;19121;52.428;10.816;2022-12-18T13:23:49;18.20;28.60
32753;DHT22;19121;52.428;10.816;2022-12-18T13:31:12;18.30;28.70
32753;DHT22;19121;52.428;10.816;2022-12-18T13:33:42;18.20;28.70
32753;DHT22;19121;52.428;10.816;2022-12-18T13:36:25;18.20;28.60
32753;DHT22;19121;52.428;10.816;2022-12-18T13:41:35;18.30;28.70
32753;DHT22;19121;52.428;10.816;2022-12-18T13:46:45;18.30;29.00
32753;DHT22;19121;52.428;10.816;2022-12-18T13:51:40;18.30;29.20
32753;DHT22;19121;52.428;10.816;2022-12-18T13:54:17;18.30;29.30
32753;DHT22;19121;52.428;10.816;2022-12-18T13:56:44;18.30;30.00
32753;DHT22;19121;52.428;10.816;2022-12-18T13:59:20;18.30;29.80
32753;DHT22;19121;52.428;10.816;2022-12-18T14:01:47;18.30;30.00
32753;DHT22;19121;52.428;10.816;2022-12-18T14:04:21;18.30;30.10
32753;DHT22;19121;52.428;10.816;2022-12-18T14:06:46;18.30;31.20
32753;DHT22;19121;52.428;10.816;2022-12-18T14:09:13;18.40;30.60
32753;DHT22;19121;52.428;10.816;2022-12-18T14:11:39;18.40;30.70
32753;DHT22;19121;52.428;10.816;2022-12-18T14:14:05;18.40;30.50
32753;DHT22;19121;52.428;10.816;2022-12-18T14:16:32;18.40;30.60
32753;DHT22;19121;52.428;10.816;2022-12-18T14:18:59;18.30;30.50
32753;DHT22;19121;52.428;10.816;2022-12-18T14:21:25;18.30;30.40
32753;DHT22;19121;52.428;10.816;2022-12-18T14:24:03;18.30;30.50
32753;DHT22;19121;52.428;10.816;2022-12-18T14:26:29;18.30;30.50
32753;DHT22;19121;52.428;10.816;2022-12-18T14:28:55;18.30;30.50
32753;DHT22;19121;52.428;10.816;2022-12-18T14:31:21;18.30;30.50
32753;DHT22;19121;52.428;10.816;2022-12-18T14:33:48;18.30;30.60
32753;DHT22;19121;52.428;10.816;2022-12-18T14:36:20;18.30;30.50
32753;DHT22;19121;52.428;10.816;2022-12-18T14:38:48;18.30;30.50
32753;DHT22;19121;52.428;10.816;2022-12-18T14:41:14;18.20;30.40
32753;DHT22;19121;52.428;10.816;2022-12-18T14:43:41;18.30;30.50
32753;DHT22;19121;52.428;10.816;2022-12-18T14:46:26;18.20;30.40
32753;DHT22;19121;52.428;10.816;2022-12-18T14:48:52;18.30;30.40
32753;DHT22;19121;52.428;10.816;2022-12-18T14:51:19;18.20;30.30
32753;DHT22;19121;52.428;10.816;2022-12-18T14:53:48;18.20;30.30
32753;DHT22;19121;52.428;10.816;2022-12-18T14:56:19;18.20;30.40
32753;DHT22;19121;52.428;10.816;2022-12-18T14:58:49;18.20;30.20
32753;DHT22;19121;52.428;10.816;2022-12-18T15:01:22;18.20;30.30
32753;DHT22;19121;52.428;10.816;2022-12-18T15:03:49;18.20;30.20
32753;DHT22;19121;52.428;10.816;2022-12-18T15:06:23;18.20;30.20
32753;DHT22;19121;52.428;10.816;2022-12-18T15:08:50;18.20;30.20
32753;DHT22;19121;52.428;10.816;2022-12-18T15:11:29;18.20;30.20
32753;DHT22;19121;52.428;10.816;2022-12-18T15:13:54;18.20;30.20
32753;DHT22;19121;52.428;10.816;2022-12-18T15:16:20;18.20;30.20
32753;DHT22;19121;52.428;10.816;2022-12-18T15:18:45;18.20;30.20
32753;DHT22;19121;52.428;10.816;2022-12-18T15:21:17;18.20;30.20
32753;DHT22;19121;52.428;10.816;2022-12-18T15:26:09;18.10;30.00
32753;DHT22;19121;52.428;10.816;2022-12-18T15:28:39;18.10;30.00
32753;DHT22;19121;52.428;10.816;2022-12-18T15:33:32;18.10;30.00
32753;DHT22;19121;52.428;10.816;2022-12-18T15:35:58;18.10;30.00
32753;DHT22;19121;52.428;10.816;2022-12-18T15:38:24;18.10;30.00
32753;DHT22;19121;52.428;10.816;2022-12-18T15:40:49;18.10;30.00
32753;DHT22;19121;52.428;10.816;2022-12-18T15:43:14;18.10;30.00
32753;DHT22;19121;52.428;10.816;2022-12-18T15:46:02;18.10;30.00
32753;DHT22;19121;52.428;10.816;2022-12-18T15:48:28;18.10;30.00
32753;DHT22;19121;52.428;10.816;2022-12-18T15:50:55;18.10;30.00
32753;DHT22;19121;52.428;10.816;2022-12-18T15:53:22;18.10;30.00
32753;DHT22;19121;52.428;10.816;2022-12-18T15:55:48;18.10;30.00
32753;DHT22;19121;52.428;10.816;2022-12-18T15:58:32;18.10;30.00
32753;DHT22;19121;52.428;10.816;2022-12-18T16:00:58;18.10;30.00
32753;DHT22;19121;52.428;10.816;2022-12-18T16:03:24;18.10;29.90
32753;DHT22;19121;52.428;10.816;2022-12-18T16:05:49;18.10;29.90
32753;DHT22;19121;52.428;10.816;2022-12-18T16:08:15;18.10;29.90
32753;DHT22;19121;52.428;10.816;2022-12-18T16:10:40;18.10;29.90
32753;DHT22;19121;52.428;10.816;2022-12-18T16:13:06;18.10;29.90
32753;DHT22;19121;52.428;10.816;2022-12-18T16:15:33;18.10;29.90
32753;DHT22;19121;52.428;10.816;2022-12-18T16:17:58;18.10;29.90
32753;DHT22;19121;52.428;10.816;2022-12-18T16:20:23;18.10;30.40
32753;DHT22;19121;52.428;10.816;2022-12-18T16:22:49;18.10;29.90